createdAt,value
2017-12-10T00:01:30.770Z,86.91
2017-12-10T00:03:57.564Z,87.51
2017-12-10T00:06:25.226Z,87.01
2017-12-10T00:08:52.041Z,87.45
2017-12-10T00:11:18.861Z,87.74
2017-12-10T00:13:46.441Z,87.20
2017-12-10T00:16:14.054Z,87.15
2017-12-10T00:18:40.962Z,87.82
2017-12-10T00:21:07.806Z,87.32
2017-12-10T00:23:34.679Z,87.78
2017-12-10T00:26:01.568Z,87.17
2017-12-10T00:28:29.157Z,86.54
2017-12-10T00:30:56.108Z,87.00
2017-12-10T00:33:23.766Z,86.59
2017-12-10T00:35:50.738Z,86.27
2017-12-10T00:38:18.356Z,86.85
2017-12-10T00:40:45.313Z,86.07
2017-12-10T00:43:12.278Z,86.78
2017-12-10T00:45:39.120Z,87.23
2017-12-10T00:48:06.739Z,86.74
2017-12-10T00:50:33.606Z,86.74
2017-12-10T00:53:00.444Z,86.75
2017-12-10T00:55:27.309Z,86.97
2017-12-10T00:57:54.165Z,86.32
2017-12-10T01:00:21.188Z,85.67
2017-12-10T01:02:48.696Z,86.55
2017-12-10T01:05:15.563Z,86.74
2017-12-10T01:07:42.432Z,86.91
2017-12-10T01:10:09.283Z,86.82
2017-12-10T01:12:36.147Z,86.67
2017-12-10T01:15:03.065Z,86.63
2017-12-10T01:17:29.921Z,86.82
2017-12-10T01:19:56.886Z,86.42
2017-12-10T01:22:25.417Z,86.94
2017-12-10T01:24:54.522Z,86.78
2017-12-10T01:27:22.575Z,87.00
2017-12-10T01:29:49.505Z,86.78
2017-12-10T01:32:16.343Z,86.99
2017-12-10T01:34:43.955Z,86.77
2017-12-10T01:37:11.854Z,86.47
2017-12-10T01:39:39.148Z,86.91
2017-12-10T01:42:05.984Z,87.00
2017-12-10T01:44:33.810Z,87.10
2017-12-10T01:47:00.825Z,86.78
2017-12-10T01:49:27.733Z,86.91
2017-12-10T01:51:55.421Z,87.08
2017-12-10T01:54:25.665Z,87.38
2017-12-10T01:56:54.251Z,86.76
2017-12-10T01:59:23.858Z,87.42
2017-12-10T02:01:53.259Z,87.29
2017-12-10T02:04:20.232Z,87.28
2017-12-10T02:06:47.086Z,86.75
2017-12-10T02:09:14.239Z,87.65
2017-12-10T02:11:41.153Z,87.66
2017-12-10T02:14:08.941Z,87.98
2017-12-10T02:16:38.874Z,87.95
2017-12-10T02:19:06.388Z,88.12
2017-12-10T02:21:33.216Z,88.16
2017-12-10T02:24:00.836Z,88.16
2017-12-10T02:26:27.680Z,88.18
2017-12-10T02:28:54.516Z,88.16
2017-12-10T02:31:21.776Z,88.86
2017-12-10T02:33:48.691Z,89.10
2017-12-10T02:36:15.547Z,89.84
2017-12-10T02:38:42.404Z,89.91
2017-12-10T02:41:09.254Z,89.72
2017-12-10T02:43:36.123Z,90.18
2017-12-10T02:46:03.020Z,90.02
2017-12-10T02:48:29.903Z,90.06
2017-12-10T02:50:56.752Z,90.97
2017-12-10T02:53:23.596Z,90.37
2017-12-10T02:55:50.436Z,90.80
2017-12-10T02:58:17.303Z,90.70
2017-12-10T03:00:44.148Z,91.77
2017-12-10T03:03:10.992Z,92.35
2017-12-10T03:05:38.630Z,91.72
2017-12-10T03:08:05.455Z,91.79
2017-12-10T03:10:32.355Z,92.07
2017-12-10T03:12:59.218Z,91.48
2017-12-10T03:15:26.033Z,92.36
2017-12-10T03:17:52.881Z,91.81
2017-12-10T03:20:19.737Z,92.05
2017-12-10T03:22:47.338Z,92.06
2017-12-10T03:25:14.204Z,92.35
2017-12-10T03:27:41.034Z,91.77
2017-12-10T03:30:07.910Z,92.10
2017-12-10T03:32:35.473Z,92.72
2017-12-10T03:35:02.306Z,92.02
2017-12-10T03:37:29.138Z,91.96
2017-12-10T03:39:55.964Z,92.46
2017-12-10T03:42:22.796Z,92.88
2017-12-10T03:44:49.628Z,92.20
2017-12-10T03:47:16.483Z,92.17
2017-12-10T03:49:43.331Z,92.31
2017-12-10T03:52:10.207Z,93.07
2017-12-10T03:54:37.030Z,92.03
2017-12-10T03:57:04.612Z,93.10
2017-12-10T03:59:32.182Z,91.88
2017-12-10T04:01:59.023Z,92.61
2017-12-10T04:04:25.855Z,92.53
2017-12-10T04:06:52.688Z,92.64
2017-12-10T04:09:19.522Z,92.84
2017-12-10T04:11:46.367Z,93.45
2017-12-10T04:14:13.205Z,93.34
2017-12-10T04:16:40.092Z,92.89
2017-12-10T04:19:06.935Z,92.91
2017-12-10T04:21:33.770Z,93.01
2017-12-10T04:24:00.638Z,92.79
2017-12-10T04:26:27.474Z,92.75
2017-12-10T04:28:54.277Z,92.67
2017-12-10T04:31:21.086Z,92.63
2017-12-10T04:33:48.653Z,93.09
2017-12-10T04:36:15.484Z,92.53
2017-12-10T04:38:42.297Z,92.88
2017-12-10T04:41:09.129Z,93.04
2017-12-10T04:43:35.967Z,92.87
2017-12-10T04:46:02.834Z,94.29
2017-12-10T04:48:29.689Z,93.51
2017-12-10T04:50:56.531Z,93.33
2017-12-10T04:53:23.374Z,93.56
2017-12-10T04:55:50.187Z,94.93
2017-12-10T04:58:16.985Z,93.34
2017-12-10T05:00:43.837Z,94.01
2017-12-10T05:03:11.397Z,94.56
2017-12-10T05:05:38.253Z,94.37
2017-12-10T05:08:05.110Z,93.81
2017-12-10T05:10:31.978Z,93.14
2017-12-10T05:12:58.806Z,93.33
2017-12-10T05:15:25.681Z,93.80
2017-12-10T05:17:52.521Z,93.45
2017-12-10T05:20:19.313Z,94.10
2017-12-10T05:22:46.130Z,93.11
2017-12-10T05:25:12.994Z,93.34
2017-12-10T05:27:39.848Z,93.25
2017-12-10T05:30:06.687Z,93.15
2017-12-10T05:32:34.245Z,92.81
2017-12-10T05:35:01.029Z,92.82
2017-12-10T05:37:27.850Z,92.72
2017-12-10T05:39:54.672Z,92.88
2017-12-10T05:42:21.461Z,93.05
2017-12-10T05:44:48.277Z,92.60
2017-12-10T05:47:15.111Z,92.82
2017-12-10T05:49:42.030Z,92.57
2017-12-10T05:52:08.853Z,92.50
2017-12-10T05:54:36.460Z,92.50
2017-12-10T05:57:03.280Z,92.48
2017-12-10T05:59:30.820Z,92.57
2017-12-10T06:01:57.688Z,92.41
2017-12-10T06:04:24.515Z,92.28
2017-12-10T06:06:51.322Z,91.76
2017-12-10T06:09:18.132Z,91.95
2017-12-10T06:11:44.958Z,92.03
2017-12-10T06:14:11.772Z,91.60
2017-12-10T06:16:38.610Z,91.64
2017-12-10T06:19:05.444Z,91.47
2017-12-10T06:21:33.078Z,91.81
2017-12-10T06:23:59.908Z,91.51
2017-12-10T06:26:26.746Z,91.56
2017-12-10T06:28:54.313Z,91.29
2017-12-10T06:31:21.139Z,91.60
2017-12-10T06:33:47.982Z,91.14
2017-12-10T06:36:14.802Z,91.39
2017-12-10T06:38:42.362Z,90.94
2017-12-10T06:41:09.181Z,91.09
2017-12-10T06:43:36.013Z,91.10
2017-12-10T06:46:03.684Z,90.71
2017-12-10T06:48:30.502Z,90.69
2017-12-10T06:50:57.401Z,91.13
2017-12-10T06:53:24.234Z,90.89
2017-12-10T06:55:51.086Z,90.96
2017-12-10T06:58:17.937Z,90.51
2017-12-10T07:00:44.941Z,90.84
2017-12-10T07:03:11.815Z,91.12
2017-12-10T07:05:39.383Z,90.47
2017-12-10T07:08:06.219Z,90.97
2017-12-10T07:10:33.070Z,90.31
2017-12-10T07:12:59.896Z,90.73
2017-12-10T07:15:26.720Z,90.78
2017-12-10T07:17:53.579Z,90.45
2017-12-10T07:20:20.406Z,91.13
2017-12-10T07:22:47.251Z,90.53
2017-12-10T07:25:14.106Z,90.75
2017-12-10T07:27:40.935Z,89.54
2017-12-10T07:30:07.765Z,89.99
2017-12-10T07:32:34.624Z,89.98
2017-12-10T07:35:01.483Z,89.84
2017-12-10T07:37:28.297Z,89.63
2017-12-10T07:39:55.865Z,89.73
2017-12-10T07:42:23.423Z,89.59
2017-12-10T07:44:50.250Z,89.33
2017-12-10T07:47:17.116Z,89.62
2017-12-10T07:49:43.979Z,89.61
2017-12-10T07:52:10.816Z,89.58
2017-12-10T07:54:37.731Z,89.94
2017-12-10T07:57:04.551Z,89.74
2017-12-10T07:59:31.427Z,89.74
2017-12-10T08:01:58.233Z,89.72
2017-12-10T08:04:25.870Z,89.80
2017-12-10T08:06:52.748Z,89.67
2017-12-10T08:09:19.519Z,89.28
2017-12-10T08:11:46.377Z,89.51
2017-12-10T08:14:13.253Z,89.15
2017-12-10T08:16:40.842Z,89.37
2017-12-10T08:19:07.688Z,89.20
2017-12-10T08:21:34.598Z,89.29
2017-12-10T08:24:01.469Z,89.20
2017-12-10T08:26:28.322Z,89.33
2017-12-10T08:28:55.158Z,89.19
2017-12-10T08:31:22.020Z,88.87
2017-12-10T08:33:48.924Z,89.08
2017-12-10T08:36:15.740Z,88.91
2017-12-10T08:38:42.548Z,89.15
2017-12-10T08:41:09.420Z,89.14
2017-12-10T08:43:36.273Z,88.96
2017-12-10T08:46:03.078Z,89.21
2017-12-10T08:48:30.641Z,89.34
2017-12-10T08:50:58.195Z,89.13
2017-12-10T08:53:25.037Z,89.03
2017-12-10T08:55:51.890Z,88.55
2017-12-10T08:58:18.713Z,88.85
2017-12-10T09:00:45.614Z,89.17
2017-12-10T09:03:12.824Z,88.67
2017-12-10T09:05:40.538Z,88.87
2017-12-10T09:08:08.109Z,89.01
2017-12-10T09:10:35.674Z,89.23
2017-12-10T09:13:03.242Z,89.03
2017-12-10T09:15:30.108Z,88.93
2017-12-10T09:17:57.721Z,88.66
2017-12-10T09:20:24.550Z,88.59
2017-12-10T09:22:52.107Z,88.77
2017-12-10T09:25:18.971Z,88.43
2017-12-10T09:27:45.834Z,87.42
2017-12-10T09:30:12.898Z,87.89
2017-12-10T09:32:39.729Z,86.22
2017-12-10T09:35:06.558Z,87.25
2017-12-10T09:37:33.393Z,87.62
2017-12-10T09:40:00.216Z,87.70
2017-12-10T09:42:27.054Z,87.69
2017-12-10T09:44:53.908Z,87.43
2017-12-10T09:47:20.735Z,87.49
2017-12-10T09:49:47.538Z,87.87
2017-12-10T09:52:14.344Z,87.94
2017-12-10T09:54:41.168Z,87.48
2017-12-10T09:57:08.049Z,87.62
2017-12-10T09:59:34.861Z,87.48
2017-12-10T10:02:01.748Z,87.42
2017-12-10T10:04:29.312Z,87.22
2017-12-10T10:06:56.156Z,86.74
2017-12-10T10:09:23.723Z,86.85
2017-12-10T10:11:51.312Z,86.99
2017-12-10T10:14:18.886Z,86.61
2017-12-10T10:16:46.454Z,86.73
2017-12-10T10:19:14.033Z,86.92
2017-12-10T10:21:41.619Z,86.80
2017-12-10T10:24:09.454Z,86.58
2017-12-10T10:26:36.373Z,86.55
2017-12-10T10:29:03.243Z,86.29
2017-12-10T10:31:30.058Z,86.27
2017-12-10T10:33:56.887Z,86.42
2017-12-10T10:36:23.753Z,86.31
2017-12-10T10:38:50.607Z,86.40
2017-12-10T10:41:17.450Z,86.63
2017-12-10T10:43:44.278Z,86.69
2017-12-10T10:46:11.939Z,86.89
2017-12-10T10:48:38.728Z,87.45
2017-12-10T10:51:06.350Z,87.24
2017-12-10T10:53:33.199Z,87.67
2017-12-10T10:56:00.018Z,87.65
2017-12-10T10:58:26.856Z,87.69
2017-12-10T11:00:53.750Z,88.10
2017-12-10T11:03:21.307Z,88.11
2017-12-10T11:05:48.187Z,87.83
2017-12-10T11:08:15.039Z,87.93
2017-12-10T11:10:41.874Z,87.56
2017-12-10T11:13:08.736Z,87.34
2017-12-10T11:15:35.612Z,87.72
2017-12-10T11:18:02.443Z,87.89
2017-12-10T11:20:30.007Z,88.08
2017-12-10T11:22:56.859Z,88.55
2017-12-10T11:25:23.702Z,88.56
2017-12-10T11:27:50.549Z,89.17
2017-12-10T11:30:17.383Z,89.89
2017-12-10T11:32:44.228Z,90.43
2017-12-10T11:35:11.056Z,91.19
2017-12-10T11:37:37.884Z,91.81
2017-12-10T11:40:05.693Z,91.88
2017-12-10T11:42:32.567Z,91.74
2017-12-10T11:44:59.428Z,91.57
2017-12-10T11:47:26.263Z,92.15
2017-12-10T11:49:53.110Z,92.68
2017-12-10T11:52:19.972Z,93.14
2017-12-10T11:54:46.810Z,92.72
2017-12-10T11:57:13.749Z,92.86
2017-12-10T11:59:41.310Z,92.77
2017-12-10T12:02:08.879Z,93.98
2017-12-10T12:04:36.496Z,93.91
2017-12-10T12:07:03.443Z,94.39
2017-12-10T12:09:30.417Z,93.85
2017-12-10T12:11:57.262Z,94.12
2017-12-10T12:14:24.097Z,93.88
2017-12-10T12:16:52.500Z,94.28
2017-12-10T12:19:20.148Z,94.13
2017-12-10T12:21:46.962Z,93.69
2017-12-10T12:24:13.822Z,93.59
2017-12-10T12:26:40.896Z,94.48
2017-12-10T12:29:08.161Z,94.79
2017-12-10T12:31:35.002Z,94.92
2017-12-10T12:34:02.642Z,94.00
2017-12-10T12:36:29.508Z,94.39
2017-12-10T12:38:56.351Z,94.52
2017-12-10T12:41:23.445Z,94.86
2017-12-10T12:43:50.388Z,94.61
2017-12-10T12:46:17.295Z,94.98
2017-12-10T12:48:44.878Z,95.01
2017-12-10T12:51:12.551Z,95.11
2017-12-10T12:53:40.145Z,94.76
2017-12-10T12:56:07.349Z,95.13
2017-12-10T12:58:34.240Z,95.12
2017-12-10T13:01:01.161Z,95.02
2017-12-10T13:03:29.532Z,95.60
2017-12-10T13:05:57.100Z,95.39
2017-12-10T13:08:25.755Z,95.32
2017-12-10T13:10:55.396Z,94.92
2017-12-10T13:13:23.251Z,94.82
2017-12-10T13:15:50.431Z,94.89
2017-12-10T13:18:17.830Z,94.53
2017-12-10T13:20:45.222Z,94.62
2017-12-10T13:23:14.022Z,94.19
2017-12-10T13:25:42.690Z,94.25
2017-12-10T13:28:10.953Z,94.32
2017-12-10T13:30:37.856Z,94.57
2017-12-10T13:33:04.987Z,94.51
2017-12-10T13:35:32.323Z,94.72
2017-12-10T13:37:59.251Z,95.04
2017-12-10T13:40:26.230Z,95.12
2017-12-10T13:42:54.813Z,95.11
2017-12-10T13:45:21.739Z,94.99
2017-12-10T13:47:48.581Z,95.09
2017-12-10T13:50:16.154Z,94.93
2017-12-10T13:52:43.185Z,95.48
2017-12-10T13:55:10.104Z,95.02
2017-12-10T13:57:37.691Z,94.48
2017-12-10T14:00:05.231Z,94.55
2017-12-10T14:02:32.832Z,94.62
2017-12-10T14:05:00.427Z,94.58
2017-12-10T14:07:27.283Z,94.59
2017-12-10T14:09:54.325Z,94.73
2017-12-10T14:12:21.258Z,94.50
2017-12-10T14:14:48.069Z,94.64
2017-12-10T14:17:15.672Z,94.59
2017-12-10T14:19:42.535Z,95.06
2017-12-10T14:22:09.395Z,94.85
2017-12-10T14:24:36.370Z,94.42
2017-12-10T14:27:03.240Z,94.82
2017-12-10T14:29:30.093Z,94.48
2017-12-10T14:31:56.943Z,94.71
2017-12-10T14:34:24.114Z,94.61
2017-12-10T14:36:50.942Z,94.64
2017-12-10T14:39:18.582Z,94.93
2017-12-10T14:41:46.777Z,95.02
2017-12-10T14:44:14.428Z,95.29
2017-12-10T14:46:41.376Z,94.98
2017-12-10T14:49:08.247Z,94.86
2017-12-10T14:51:35.064Z,95.18
2017-12-10T14:54:02.083Z,95.09
2017-12-10T14:56:29.058Z,95.37
2017-12-10T14:58:55.941Z,95.32
2017-12-10T15:01:22.828Z,95.45
2017-12-10T15:03:50.584Z,95.40
2017-12-10T15:06:17.451Z,95.27
2017-12-10T15:08:44.312Z,95.41
2017-12-10T15:11:11.246Z,95.52
2017-12-10T15:13:38.207Z,95.61
2017-12-10T15:16:05.109Z,95.63
2017-12-10T15:18:31.973Z,95.46
2017-12-10T15:20:58.819Z,95.59
2017-12-10T15:23:36.830Z,95.85
2017-12-10T15:26:03.869Z,96.07
2017-12-10T15:28:30.823Z,95.69
2017-12-10T15:30:57.662Z,96.20
2017-12-10T15:33:25.411Z,96.38
2017-12-10T15:35:52.822Z,96.26
2017-12-10T15:38:20.527Z,96.81
2017-12-10T15:40:48.937Z,96.92
2017-12-10T15:43:16.960Z,96.87
2017-12-10T15:45:45.611Z,97.02
2017-12-10T15:48:14.827Z,97.40
2017-12-10T15:50:44.468Z,97.03
2017-12-10T15:53:13.018Z,97.61
2017-12-10T15:55:41.987Z,97.76
2017-12-10T15:58:10.878Z,97.74
2017-12-10T16:00:39.831Z,97.79
2017-12-10T16:03:09.589Z,98.04
2017-12-10T16:05:38.217Z,98.49
2017-12-10T16:08:05.371Z,98.40
2017-12-10T16:10:34.277Z,98.24
2017-12-10T16:13:03.217Z,97.89
2017-12-10T16:15:31.907Z,98.25
2017-12-10T16:18:02.599Z,98.11
2017-12-10T16:20:32.351Z,98.58
2017-12-10T16:23:01.343Z,98.16
2017-12-10T16:25:29.624Z,98.43
2017-12-10T16:27:59.899Z,98.57
2017-12-10T16:30:29.511Z,97.98
2017-12-10T16:32:58.361Z,98.28
2017-12-10T16:35:27.343Z,98.26
2017-12-10T16:37:56.986Z,97.90
2017-12-10T16:40:26.102Z,97.17
2017-12-10T16:42:56.434Z,97.51
2017-12-10T16:45:25.792Z,97.34
2017-12-10T16:47:54.757Z,96.68
2017-12-10T16:50:24.980Z,96.79
2017-12-10T16:52:54.949Z,96.75
2017-12-10T16:55:24.198Z,97.00
2017-12-10T16:57:53.445Z,96.49
2017-12-10T17:00:23.375Z,96.66
2017-12-10T17:02:52.479Z,96.53
2017-12-10T17:05:21.673Z,96.41
2017-12-10T17:07:51.651Z,96.34
2017-12-10T17:10:21.601Z,96.05
2017-12-10T17:12:50.798Z,96.07
2017-12-10T17:15:20.686Z,96.13
2017-12-10T17:17:49.757Z,95.50
2017-12-10T17:20:18.792Z,95.35
2017-12-10T17:22:47.721Z,96.00
2017-12-10T17:25:17.363Z,95.22
2017-12-10T17:27:46.382Z,94.75
2017-12-10T17:30:16.288Z,95.01
2017-12-10T17:32:45.240Z,94.94
2017-12-10T17:35:14.396Z,95.05
2017-12-10T17:37:43.398Z,95.62
2017-12-10T17:40:12.392Z,95.49
2017-12-10T17:42:42.546Z,95.22
2017-12-10T17:45:11.567Z,95.18
2017-12-10T17:47:40.272Z,95.25
2017-12-10T17:50:09.464Z,95.89
2017-12-10T17:52:38.489Z,95.66
2017-12-10T17:55:07.642Z,95.66
2017-12-10T17:57:36.611Z,95.51
2017-12-10T18:00:05.488Z,95.39
2017-12-10T18:02:35.220Z,95.06
2017-12-10T18:05:04.929Z,95.00
2017-12-10T18:07:33.860Z,94.35
2017-12-10T18:10:02.963Z,94.17
2017-12-10T18:12:32.752Z,94.25
2017-12-10T18:15:01.733Z,94.09
2017-12-10T18:17:30.668Z,93.21
2017-12-10T18:19:59.626Z,93.87
2017-12-10T18:22:29.374Z,94.02
2017-12-10T18:24:59.321Z,93.58
2017-12-10T18:27:28.369Z,93.14
2017-12-10T18:29:56.821Z,92.19
2017-12-10T18:32:25.703Z,92.51
2017-12-10T18:34:54.308Z,93.59
2017-12-10T18:37:23.894Z,93.33
2017-12-10T18:39:51.691Z,92.74
2017-12-10T18:42:20.664Z,93.67
2017-12-10T18:44:49.856Z,93.36
2017-12-10T18:47:18.658Z,93.21
2017-12-10T18:49:47.512Z,92.82
2017-12-10T18:52:16.897Z,93.04
2017-12-10T18:54:45.989Z,93.34
2017-12-10T18:57:15.211Z,93.30
2017-12-10T18:59:44.204Z,93.07
2017-12-10T19:02:13.199Z,92.61
2017-12-10T19:04:42.039Z,93.14
2017-12-10T19:07:11.938Z,93.39
2017-12-10T19:09:40.920Z,93.15
2017-12-10T19:12:09.838Z,92.10
2017-12-10T19:14:38.783Z,91.37
2017-12-10T19:17:07.933Z,91.25
2017-12-10T19:19:37.060Z,91.92
2017-12-10T19:22:06.115Z,91.05
2017-12-10T19:24:36.645Z,91.80
2017-12-10T19:27:05.572Z,91.14
2017-12-10T19:29:34.413Z,91.08
2017-12-10T19:32:03.459Z,91.42
2017-12-10T19:34:32.176Z,90.57
2017-12-10T19:37:01.224Z,91.34
2017-12-10T19:39:30.098Z,91.17
2017-12-10T19:41:59.273Z,91.83
2017-12-10T19:44:29.273Z,92.71
2017-12-10T19:46:59.123Z,92.42
2017-12-10T19:49:28.343Z,93.08
2017-12-10T19:51:57.311Z,94.28
2017-12-10T19:54:26.336Z,94.65
2017-12-10T19:56:56.100Z,95.52
2017-12-10T19:59:25.186Z,96.16
2017-12-10T20:01:54.793Z,95.99
2017-12-10T20:04:24.343Z,96.28
2017-12-10T20:06:54.327Z,96.32
2017-12-10T20:09:24.297Z,96.08
2017-12-10T20:11:53.371Z,96.01
2017-12-10T20:14:23.160Z,95.46
2017-12-10T20:16:52.029Z,95.27
2017-12-10T20:19:20.882Z,96.02
2017-12-10T20:21:50.544Z,94.64
2017-12-10T20:24:19.585Z,95.69
2017-12-10T20:26:48.894Z,95.16
2017-12-10T20:29:19.693Z,94.72
2017-12-10T20:31:48.717Z,93.61
2017-12-10T20:34:17.480Z,93.52
2017-12-10T20:36:46.621Z,93.72
2017-12-10T20:39:15.947Z,92.38
2017-12-10T20:41:44.906Z,94.59
2017-12-10T20:44:14.499Z,94.82
2017-12-10T20:46:43.796Z,95.11
2017-12-10T20:49:12.911Z,95.99
2017-12-10T20:51:42.054Z,96.17
2017-12-10T20:54:10.595Z,96.07
2017-12-10T20:56:40.211Z,96.20
2017-12-10T20:59:09.053Z,95.51
2017-12-10T21:01:37.699Z,96.00
2017-12-10T21:04:06.744Z,96.47
2017-12-10T21:06:35.567Z,95.98
2017-12-10T21:09:05.089Z,96.09
2017-12-10T21:11:34.284Z,95.34
2017-12-10T21:14:03.486Z,94.83
2017-12-10T21:16:33.136Z,94.09
2017-12-10T21:19:02.235Z,93.88
2017-12-10T21:21:32.602Z,94.22
2017-12-10T21:24:00.668Z,93.41
2017-12-10T21:26:29.639Z,93.65
2017-12-10T21:28:58.598Z,92.28
2017-12-10T21:31:27.597Z,92.09
2017-12-10T21:33:55.686Z,90.73
2017-12-10T21:36:22.802Z,89.45
2017-12-10T21:38:50.451Z,90.55
2017-12-10T21:41:17.346Z,90.42
2017-12-10T21:43:44.205Z,90.51
2017-12-10T21:46:11.426Z,90.41
2017-12-10T21:48:38.495Z,90.62
2017-12-10T21:51:05.392Z,90.17
2017-12-10T21:53:32.318Z,89.19
2017-12-10T21:55:59.190Z,89.75
2017-12-10T21:58:26.105Z,89.18
2017-12-10T22:00:54.059Z,90.14
2017-12-10T22:03:21.364Z,88.51
2017-12-10T22:05:49.151Z,90.19
2017-12-10T22:08:16.050Z,90.14
2017-12-10T22:10:42.956Z,88.39
2017-12-10T22:13:09.795Z,88.18
2017-12-10T22:15:36.714Z,88.42
2017-12-10T22:18:03.549Z,89.48
2017-12-10T22:20:30.439Z,88.46
2017-12-10T22:22:57.376Z,90.53
2017-12-10T22:25:25.350Z,89.46
2017-12-10T22:27:52.276Z,90.79
2017-12-10T22:30:19.174Z,90.38
2017-12-10T22:32:46.190Z,91.26
2017-12-10T22:35:13.111Z,91.57
2017-12-10T22:37:39.978Z,91.74
2017-12-10T22:40:07.580Z,92.00
2017-12-10T22:42:35.245Z,91.74
2017-12-10T22:45:02.292Z,92.14
2017-12-10T22:47:30.140Z,91.98
2017-12-10T22:49:57.274Z,90.83
2017-12-10T22:52:24.820Z,92.10
2017-12-10T22:54:51.818Z,91.33
2017-12-10T22:57:19.329Z,91.97
2017-12-10T22:59:46.155Z,91.53
2017-12-10T23:02:13.760Z,91.59
2017-12-10T23:04:40.606Z,91.54
2017-12-10T23:07:07.661Z,91.44
2017-12-10T23:09:34.435Z,90.73
2017-12-10T23:12:01.278Z,90.68
2017-12-10T23:14:40.426Z,91.21
2017-12-10T23:17:07.710Z,91.71
2017-12-10T23:19:36.641Z,91.10
2017-12-10T23:22:03.446Z,91.16
2017-12-10T23:24:30.259Z,90.57
2017-12-10T23:26:58.478Z,91.40
2017-12-10T23:29:25.827Z,91.02
2017-12-10T23:31:52.907Z,90.39
2017-12-10T23:34:21.707Z,90.65
2017-12-10T23:36:49.765Z,89.12
2017-12-10T23:39:16.894Z,88.64
2017-12-10T23:41:43.663Z,90.35
2017-12-10T23:44:10.445Z,87.82
2017-12-10T23:46:37.269Z,89.77
2017-12-10T23:49:04.049Z,88.27
2017-12-10T23:51:31.680Z,89.28
2017-12-10T23:53:58.676Z,88.63
2017-12-10T23:56:26.937Z,89.96
2017-12-10T23:58:55.552Z,88.77
